createdAt,value
2018-05-18T00:00:28.600Z,22.37
2018-05-18T00:03:03.389Z,25.33
2018-05-18T00:05:38.151Z,17.50
2018-05-18T00:08:12.706Z,17.90
2018-05-18T00:10:47.296Z,21.57
2018-05-18T00:13:21.949Z,23.73
2018-05-18T00:15:56.603Z,22.97
2018-05-18T00:18:31.292Z,24.73
2018-05-18T00:21:05.876Z,22.27
2018-05-18T00:23:40.645Z,27.60
2018-05-18T00:26:15.604Z,22.50
2018-05-18T00:28:51.211Z,20.07
2018-05-18T00:31:25.919Z,25.30
2018-05-18T00:34:00.644Z,25.77
2018-05-18T00:36:35.252Z,29.47
2018-05-18T00:39:09.905Z,26.80
2018-05-18T00:41:44.481Z,36.23
2018-05-18T00:44:19.091Z,25.13
2018-05-18T00:46:54.150Z,17.10
2018-05-18T00:49:29.841Z,26.40
2018-05-18T00:52:04.701Z,34.57
2018-05-18T00:54:39.489Z,26.10
2018-05-18T00:57:14.096Z,20.27
2018-05-18T00:59:48.629Z,14.43
2018-05-18T01:02:23.262Z,28.30
2018-05-18T01:04:57.940Z,29.57
2018-05-18T01:07:32.740Z,58.43
2018-05-18T01:10:07.524Z,59.43
2018-05-18T01:12:42.152Z,45.60
2018-05-18T01:15:17.170Z,29.90
2018-05-18T01:17:51.935Z,27.60
2018-05-18T01:20:26.366Z,25.20
2018-05-18T01:23:01.135Z,26.53
2018-05-18T01:25:35.811Z,19.80
2018-05-18T01:28:10.563Z,26.43
2018-05-18T01:30:45.863Z,23.23
2018-05-18T01:33:21.210Z,29.00
2018-05-18T01:35:55.941Z,16.30
2018-05-18T01:38:30.590Z,22.17
2018-05-18T01:41:06.015Z,24.57
2018-05-18T01:43:40.650Z,28.97
2018-05-18T01:46:16.071Z,30.87
2018-05-18T01:48:50.882Z,31.43
2018-05-18T01:51:26.444Z,24.90
2018-05-18T01:54:01.080Z,27.93
2018-05-18T01:56:35.946Z,28.10
2018-05-18T01:59:10.856Z,43.03
2018-05-18T02:01:45.458Z,39.23
2018-05-18T02:04:20.825Z,34.80
2018-05-18T02:06:55.538Z,36.07
2018-05-18T02:09:30.864Z,36.10
2018-05-18T02:12:05.407Z,42.07
2018-05-18T02:14:40.822Z,58.77
2018-05-18T02:17:15.443Z,54.67
2018-05-18T02:19:51.549Z,47.90
2018-05-18T02:22:26.849Z,40.47
2018-05-18T02:25:02.192Z,43.00
2018-05-18T02:27:37.064Z,32.67
2018-05-18T02:30:11.904Z,30.90
2018-05-18T02:32:46.579Z,25.60
2018-05-18T02:35:21.208Z,25.23
2018-05-18T02:37:56.570Z,19.07
2018-05-18T02:40:32.082Z,22.50
2018-05-18T02:43:06.639Z,17.07
2018-05-18T02:45:41.272Z,17.83
2018-05-18T02:48:15.848Z,26.10
2018-05-18T02:50:50.499Z,20.23
2018-05-18T02:53:25.097Z,26.03
2018-05-18T02:55:59.681Z,24.87
2018-05-18T02:58:34.385Z,19.67
2018-05-18T03:01:09.857Z,21.40
2018-05-18T03:03:44.761Z,21.93
2018-05-18T03:06:19.487Z,28.73
2018-05-18T03:08:54.085Z,25.53
2018-05-18T03:11:28.752Z,27.57
2018-05-18T03:14:03.365Z,22.73
2018-05-18T03:16:37.938Z,18.93
2018-05-18T03:19:12.791Z,19.43
2018-05-18T03:21:41.856Z,29.10
2018-05-18T03:24:17.392Z,42.90
2018-05-18T03:26:52.201Z,28.10
2018-05-18T03:29:26.971Z,20.33
2018-05-18T03:32:01.560Z,22.77
2018-05-18T03:34:36.240Z,22.80
2018-05-18T03:37:10.988Z,18.33
2018-05-18T03:39:45.615Z,22.03
2018-05-18T03:42:20.230Z,17.03
2018-05-18T03:44:54.977Z,27.00
2018-05-18T03:47:29.584Z,22.73
2018-05-18T03:50:03.556Z,22.43
2018-05-18T03:52:38.498Z,17.10
2018-05-18T03:55:13.284Z,18.40
2018-05-18T03:57:48.136Z,20.20
2018-05-18T04:00:23.795Z,20.23
2018-05-18T04:03:09.775Z,21.00
2018-05-18T04:05:55.719Z,20.13
2018-05-18T04:08:48.084Z,23.30
2018-05-18T04:11:22.943Z,18.10
2018-05-18T04:13:57.714Z,25.80
2018-05-18T04:16:32.375Z,20.40
2018-05-18T04:19:06.932Z,16.07
2018-05-18T04:21:41.625Z,11.90
2018-05-18T04:24:17.129Z,20.23
2018-05-18T04:26:51.859Z,14.57
2018-05-18T04:29:26.462Z,19.23
2018-05-18T04:32:01.899Z,16.23
2018-05-18T04:34:36.653Z,16.73
2018-05-18T04:37:11.212Z,15.53
2018-05-18T04:39:41.478Z,20.10
2018-05-18T04:42:11.454Z,18.27
2018-05-18T04:44:46.243Z,23.47
2018-05-18T04:47:20.956Z,19.87
2018-05-18T04:49:55.704Z,17.30
2018-05-18T04:52:30.432Z,25.20
2018-05-18T04:54:59.559Z,20.60
2018-05-18T04:57:28.600Z,19.80
2018-05-18T04:59:57.699Z,22.43
2018-05-18T05:02:27.387Z,21.33
2018-05-18T05:04:56.418Z,21.27
2018-05-18T05:07:26.531Z,19.70
2018-05-18T05:10:00.664Z,19.40
2018-05-18T05:12:29.818Z,22.13
2018-05-18T05:14:59.404Z,19.27
2018-05-18T05:17:29.204Z,24.00
2018-05-18T05:19:58.383Z,24.57
2018-05-18T05:22:27.837Z,20.30
2018-05-18T05:24:56.988Z,28.17
2018-05-18T05:27:25.982Z,27.40
2018-05-18T05:29:54.955Z,32.00
2018-05-18T05:32:29.723Z,33.00
2018-05-18T05:35:03.888Z,35.23
2018-05-18T05:37:39.055Z,30.90
2018-05-18T05:40:13.875Z,31.67
2018-05-18T05:42:48.484Z,38.40
2018-05-18T05:45:23.259Z,33.07
2018-05-18T05:47:58.085Z,29.90
2018-05-18T05:50:27.756Z,27.37
2018-05-18T05:53:02.560Z,29.93
2018-05-18T05:55:37.279Z,29.80
2018-05-18T05:58:06.594Z,24.77
2018-05-18T06:00:35.742Z,27.50
2018-05-18T06:03:05.703Z,24.10
2018-05-18T06:05:34.817Z,23.27
2018-05-18T06:08:05.751Z,28.90
2018-05-18T06:10:34.830Z,22.63
2018-05-18T06:13:04.165Z,33.37
2018-05-18T06:15:33.733Z,34.00
2018-05-18T06:18:02.886Z,25.37
2018-05-18T06:20:31.982Z,28.87
2018-05-18T06:23:01.330Z,18.60
2018-05-18T06:25:30.389Z,20.00
2018-05-18T06:27:59.723Z,24.77
2018-05-18T06:30:29.196Z,28.43
2018-05-18T06:32:58.326Z,25.30
2018-05-18T06:35:27.486Z,23.20
2018-05-18T06:37:57.227Z,25.17
2018-05-18T06:40:27.244Z,17.60
2018-05-18T06:43:01.864Z,24.33
2018-05-18T06:45:37.350Z,25.30
2018-05-18T06:48:12.918Z,20.90
2018-05-18T06:50:47.725Z,24.33
2018-05-18T06:53:22.442Z,21.90
2018-05-18T06:55:57.215Z,25.47
2018-05-18T06:58:31.775Z,22.23
2018-05-18T07:01:06.555Z,21.30
2018-05-18T07:03:41.303Z,16.37
2018-05-18T07:06:10.431Z,20.77
2018-05-18T07:08:45.080Z,20.47
2018-05-18T07:11:19.861Z,17.03
2018-05-18T07:13:54.582Z,24.80
2018-05-18T07:16:29.397Z,24.90
2018-05-18T07:19:04.359Z,15.40
2018-05-18T07:21:38.991Z,19.53
2018-05-18T07:24:13.787Z,16.73
2018-05-18T07:26:48.522Z,21.63
2018-05-18T07:29:23.452Z,19.27
2018-05-18T07:31:58.091Z,19.97
2018-05-18T07:34:32.893Z,18.97
2018-05-18T07:37:07.360Z,18.50
2018-05-18T07:39:42.012Z,18.93
2018-05-18T07:42:16.802Z,16.00
2018-05-18T07:44:51.462Z,17.80
2018-05-18T07:47:26.069Z,18.77
2018-05-18T07:50:00.892Z,24.37
2018-05-18T07:52:36.469Z,21.13
2018-05-18T07:55:12.039Z,18.90
2018-05-18T07:57:46.983Z,20.17
2018-05-18T08:00:21.805Z,24.97
2018-05-18T08:02:56.336Z,22.23
2018-05-18T08:05:31.084Z,23.17
2018-05-18T08:08:05.750Z,23.43
2018-05-18T08:10:40.376Z,20.53
2018-05-18T08:13:15.865Z,23.17
2018-05-18T08:15:50.425Z,30.10
2018-05-18T08:18:25.671Z,28.60
2018-05-18T08:21:00.634Z,24.90
2018-05-18T08:23:41.684Z,22.97
2018-05-18T08:26:16.447Z,22.70
2018-05-18T08:29:02.431Z,19.70
2018-05-18T08:31:35.188Z,23.00
2018-05-18T08:34:09.787Z,25.83
2018-05-18T08:36:45.259Z,23.70
2018-05-18T08:39:19.917Z,12.90
2018-05-18T08:41:54.769Z,24.53
2018-05-18T08:44:29.575Z,17.07
2018-05-18T08:47:04.313Z,18.23
2018-05-18T08:49:38.854Z,19.80
2018-05-18T08:52:13.671Z,22.40
2018-05-18T08:54:49.369Z,21.70
2018-05-18T08:57:24.283Z,21.33
2018-05-18T08:59:59.826Z,21.33
2018-05-18T09:02:34.693Z,23.07
2018-05-18T09:05:09.011Z,19.20
2018-05-18T09:07:43.897Z,19.60
2018-05-18T09:10:19.061Z,18.10
2018-05-18T09:12:53.730Z,17.70
2018-05-18T09:15:28.267Z,14.20
2018-05-18T09:18:03.785Z,14.60
2018-05-18T09:20:38.695Z,13.13
2018-05-18T09:23:14.111Z,17.40
2018-05-18T09:25:48.899Z,20.17
2018-05-18T09:28:23.712Z,20.00
2018-05-18T09:30:58.490Z,16.43
2018-05-18T09:33:33.086Z,26.90
2018-05-18T09:36:07.739Z,19.50
2018-05-18T09:38:42.417Z,22.67
2018-05-18T09:41:17.309Z,17.40
2018-05-18T09:43:51.599Z,17.40
2018-05-18T09:46:26.198Z,20.70
2018-05-18T09:49:01.011Z,18.43
2018-05-18T09:51:35.476Z,26.53
2018-05-18T09:54:10.318Z,18.00
2018-05-18T09:56:45.176Z,21.83
2018-05-18T09:59:19.764Z,24.00
2018-05-18T10:01:54.404Z,25.47
2018-05-18T10:04:29.010Z,21.50
2018-05-18T10:07:03.823Z,12.33
2018-05-18T10:09:39.202Z,16.90
2018-05-18T10:12:14.898Z,23.47
2018-05-18T10:14:49.543Z,19.33
2018-05-18T10:17:24.046Z,22.70
2018-05-18T10:19:58.660Z,17.40
2018-05-18T10:22:34.340Z,24.33
2018-05-18T10:25:09.126Z,23.33
2018-05-18T10:27:43.725Z,23.23
2018-05-18T10:30:17.769Z,17.57
2018-05-18T10:32:52.699Z,25.37
2018-05-18T10:35:27.602Z,21.40
2018-05-18T10:38:03.121Z,17.77
2018-05-18T10:40:38.601Z,12.17
2018-05-18T10:43:13.308Z,20.97
2018-05-18T10:45:47.955Z,19.80
2018-05-18T10:48:22.705Z,21.30
2018-05-18T10:50:57.286Z,25.33
2018-05-18T10:53:32.710Z,15.93
2018-05-18T10:56:07.613Z,15.13
2018-05-18T10:58:42.360Z,17.03
2018-05-18T11:01:17.864Z,15.50
2018-05-18T11:03:52.557Z,13.93
2018-05-18T11:06:27.403Z,20.10
2018-05-18T11:09:02.088Z,14.50
2018-05-18T11:11:36.870Z,20.40
2018-05-18T11:14:11.586Z,18.57
2018-05-18T11:16:46.473Z,19.37
2018-05-18T11:19:21.120Z,26.13
2018-05-18T11:21:55.744Z,28.63
2018-05-18T11:24:30.504Z,18.33
2018-05-18T11:27:04.996Z,19.27
2018-05-18T11:29:39.554Z,19.70
2018-05-18T11:32:14.390Z,13.67
2018-05-18T11:34:44.289Z,21.90
2018-05-18T11:37:13.542Z,14.07
2018-05-18T11:39:43.262Z,14.30
2018-05-18T11:42:12.375Z,17.20
2018-05-18T11:44:41.591Z,14.13
2018-05-18T11:47:12.279Z,14.90
2018-05-18T11:49:41.732Z,20.90
2018-05-18T11:52:10.692Z,15.20
2018-05-18T11:54:39.812Z,17.90
2018-05-18T11:57:09.786Z,18.00
2018-05-18T11:59:38.959Z,14.03
2018-05-18T12:02:08.188Z,15.50
2018-05-18T12:04:37.902Z,14.30
2018-05-18T12:07:07.117Z,15.50
2018-05-18T12:09:41.983Z,22.20
2018-05-18T12:12:10.752Z,24.40
2018-05-18T12:14:39.958Z,17.83
2018-05-18T12:17:09.161Z,16.27
2018-05-18T12:19:38.311Z,17.63
2018-05-18T12:22:07.352Z,17.87
2018-05-18T12:24:37.243Z,18.53
2018-05-18T12:27:06.424Z,19.33
2018-05-18T12:29:35.544Z,22.67
2018-05-18T12:32:10.150Z,15.63
2018-05-18T12:34:46.396Z,16.33
2018-05-18T12:37:20.088Z,16.40
2018-05-18T12:39:49.402Z,14.83
2018-05-18T12:42:18.546Z,15.97
2018-05-18T12:44:47.725Z,16.70
2018-05-18T12:47:17.600Z,14.20
2018-05-18T12:49:46.608Z,21.87
2018-05-18T12:52:15.687Z,16.40
2018-05-18T12:54:44.873Z,16.73
2018-05-18T12:57:15.554Z,17.03
2018-05-18T12:59:45.428Z,23.80
2018-05-18T13:02:14.573Z,14.90
2018-05-18T13:04:43.693Z,16.80
2018-05-18T13:07:12.697Z,21.40
2018-05-18T13:09:53.342Z,17.60
2018-05-18T13:12:28.007Z,16.80
2018-05-18T13:15:02.791Z,14.60
2018-05-18T13:17:38.175Z,16.50
2018-05-18T13:20:13.528Z,17.50
2018-05-18T13:22:43.943Z,18.13
2018-05-18T13:25:13.100Z,19.87
2018-05-18T13:27:47.876Z,21.67
2018-05-18T13:30:22.482Z,17.50
2018-05-18T13:32:57.265Z,20.97
2018-05-18T13:35:26.432Z,14.53
2018-05-18T13:37:55.597Z,15.93
2018-05-18T13:40:24.653Z,22.93
2018-05-18T13:43:00.105Z,14.50
2018-05-18T13:45:34.753Z,21.47
2018-05-18T13:48:09.397Z,21.87
2018-05-18T13:50:44.737Z,18.50
2018-05-18T13:53:19.524Z,16.97
2018-05-18T13:55:54.071Z,18.57
2018-05-18T13:58:23.155Z,16.77
2018-05-18T14:00:52.243Z,22.83
2018-05-18T14:03:22.091Z,21.50
2018-05-18T14:05:51.079Z,17.63
2018-05-18T14:08:21.029Z,18.07
2018-05-18T14:10:55.347Z,17.57
2018-05-18T14:13:24.535Z,19.50
2018-05-18T14:15:53.596Z,13.83
2018-05-18T14:18:22.779Z,15.40
2018-05-18T14:20:51.825Z,18.07
2018-05-18T14:23:21.206Z,14.70
2018-05-18T14:25:50.947Z,19.23
2018-05-18T14:28:20.135Z,19.17
2018-05-18T14:30:49.286Z,17.77
2018-05-18T14:33:18.454Z,12.90
2018-05-18T14:35:47.453Z,14.00
2018-05-18T14:38:16.310Z,14.90
2018-05-18T14:40:46.327Z,17.20
2018-05-18T14:43:15.443Z,19.57
2018-05-18T14:45:44.658Z,15.43
2018-05-18T14:48:14.084Z,15.40
2018-05-18T14:50:43.315Z,13.33
2018-05-18T14:53:12.322Z,13.07
2018-05-18T14:55:41.299Z,13.00
2018-05-18T14:58:10.624Z,13.03
2018-05-18T15:00:39.792Z,15.63
2018-05-18T15:03:08.953Z,14.30
2018-05-18T15:05:38.928Z,14.10
2018-05-18T15:08:08.254Z,14.07
2018-05-18T15:10:37.435Z,18.60
2018-05-18T15:13:07.768Z,13.87
2018-05-18T15:15:36.928Z,18.03
2018-05-18T15:18:06.202Z,17.03
2018-05-18T15:20:35.373Z,18.83
2018-05-18T15:23:04.990Z,18.87
2018-05-18T15:25:34.911Z,15.77
2018-05-18T15:28:05.062Z,18.20
2018-05-18T15:30:34.193Z,13.70
2018-05-18T15:33:03.952Z,15.43
2018-05-18T15:35:32.964Z,14.07
2018-05-18T15:38:02.084Z,16.13
2018-05-18T15:40:31.243Z,12.90
2018-05-18T15:43:00.352Z,15.17
2018-05-18T15:45:29.578Z,15.30
2018-05-18T15:47:59.355Z,19.77
2018-05-18T15:50:29.273Z,14.03
2018-05-18T15:52:58.384Z,11.87
2018-05-18T15:55:28.283Z,16.33
2018-05-18T15:57:58.188Z,12.73
2018-05-18T16:00:28.106Z,15.60
2018-05-18T16:02:57.066Z,14.30
2018-05-18T16:05:27.099Z,19.77
2018-05-18T16:07:56.194Z,12.30
2018-05-18T16:10:25.910Z,13.57
2018-05-18T16:12:55.044Z,16.00
2018-05-18T16:15:24.461Z,14.97
2018-05-18T16:17:55.299Z,15.63
2018-05-18T16:20:25.174Z,13.53
2018-05-18T16:22:54.301Z,15.60
2018-05-18T16:25:23.572Z,15.87
2018-05-18T16:27:52.732Z,16.27
2018-05-18T16:30:22.146Z,17.07
2018-05-18T16:32:51.361Z,11.60
2018-05-18T16:35:21.076Z,11.17
2018-05-18T16:37:50.217Z,15.93
2018-05-18T16:40:19.293Z,21.67
2018-05-18T16:42:48.395Z,17.43
2018-05-18T16:45:17.489Z,16.63
2018-05-18T16:47:46.588Z,16.37
2018-05-18T16:50:15.663Z,19.00
2018-05-18T16:52:44.825Z,15.20
2018-05-18T16:55:14.074Z,19.83
2018-05-18T16:57:43.162Z,19.90
2018-05-18T17:00:12.261Z,14.13
2018-05-18T17:02:41.481Z,15.23
2018-05-18T17:05:11.329Z,14.97
2018-05-18T17:07:40.504Z,25.33
2018-05-18T17:10:09.747Z,18.83
2018-05-18T17:12:39.764Z,15.50
2018-05-18T17:15:08.944Z,17.00
2018-05-18T17:17:38.083Z,16.23
2018-05-18T17:20:07.176Z,12.50
2018-05-18T17:22:36.281Z,19.50
2018-05-18T17:25:06.415Z,16.87
2018-05-18T17:27:45.299Z,15.77
2018-05-18T17:30:20.046Z,17.60
2018-05-18T17:32:50.630Z,18.00
2018-05-18T17:35:20.354Z,17.13
2018-05-18T17:37:49.719Z,28.10
2018-05-18T17:40:18.809Z,18.23
2018-05-18T17:42:53.530Z,15.87
2018-05-18T17:45:28.497Z,18.00
2018-05-18T17:48:03.111Z,15.27
2018-05-18T17:50:38.688Z,14.43
2018-05-18T17:53:13.819Z,16.63
2018-05-18T17:55:48.583Z,14.30
2018-05-18T17:58:17.656Z,19.57
2018-05-18T18:00:52.362Z,13.70
2018-05-18T18:03:27.697Z,16.00
2018-05-18T18:06:02.300Z,15.33
2018-05-18T18:08:36.843Z,14.97
2018-05-18T18:11:11.497Z,20.23
2018-05-18T18:13:50.297Z,16.17
2018-05-18T18:16:25.385Z,21.27
2018-05-18T18:19:00.781Z,17.23
2018-05-18T18:21:35.540Z,16.67
2018-05-18T18:24:10.901Z,16.17
2018-05-18T18:26:45.792Z,15.13
2018-05-18T18:29:14.918Z,15.03
2018-05-18T18:31:49.598Z,16.37
2018-05-18T18:34:25.068Z,19.63
2018-05-18T18:37:00.055Z,17.67
2018-05-18T18:39:34.631Z,18.03
2018-05-18T18:42:09.614Z,18.10
2018-05-18T18:44:38.780Z,18.03
2018-05-18T18:47:07.955Z,18.60
2018-05-18T18:49:37.148Z,15.93
2018-05-18T18:52:08.615Z,18.43
2018-05-18T18:54:37.928Z,15.83
2018-05-18T18:57:12.448Z,18.37
2018-05-18T18:59:41.633Z,12.43
2018-05-18T19:02:10.603Z,16.23
2018-05-18T19:04:39.728Z,22.43
2018-05-18T19:07:09.938Z,17.87
2018-05-18T19:09:39.926Z,15.93
2018-05-18T19:12:09.811Z,14.67
2018-05-18T19:14:39.066Z,18.07
2018-05-18T19:17:09.543Z,17.63
2018-05-18T19:19:38.743Z,14.03
2018-05-18T19:22:08.509Z,14.03
2018-05-18T19:24:37.950Z,13.33
2018-05-18T19:27:07.193Z,13.57
2018-05-18T19:29:41.969Z,14.70
2018-05-18T19:32:16.924Z,11.43
2018-05-18T19:34:51.545Z,12.83
2018-05-18T19:37:26.242Z,18.73
2018-05-18T19:40:01.925Z,19.13
2018-05-18T19:42:36.526Z,15.63
2018-05-18T19:45:11.200Z,14.90
2018-05-18T19:47:45.823Z,10.87
2018-05-18T19:50:21.347Z,18.80
2018-05-18T19:52:56.251Z,11.20
2018-05-18T19:55:31.094Z,13.37
2018-05-18T19:58:05.939Z,15.00
2018-05-18T20:00:40.598Z,17.13
2018-05-18T20:03:15.253Z,12.17
2018-05-18T20:05:50.840Z,17.03
2018-05-18T20:08:25.609Z,17.50
2018-05-18T20:11:00.192Z,15.77
2018-05-18T20:13:34.820Z,17.73
2018-05-18T20:16:09.521Z,21.07
2018-05-18T20:18:44.416Z,22.30
2018-05-18T20:21:19.207Z,12.63
2018-05-18T20:23:51.957Z,18.67
2018-05-18T20:26:26.849Z,13.47
2018-05-18T20:29:01.616Z,14.20
2018-05-18T20:31:36.923Z,10.73
2018-05-18T20:34:11.739Z,15.40
2018-05-18T20:36:47.080Z,13.83
2018-05-18T20:39:21.666Z,14.13
2018-05-18T20:41:56.299Z,11.83
2018-05-18T20:44:30.903Z,18.27
2018-05-18T20:47:05.512Z,13.00
2018-05-18T20:49:40.337Z,17.53
2018-05-18T20:52:15.338Z,14.03
2018-05-18T20:54:50.509Z,11.93
2018-05-18T20:57:25.319Z,18.60
2018-05-18T21:00:00.067Z,10.03
2018-05-18T21:02:34.629Z,15.20
2018-05-18T21:05:09.617Z,10.60
2018-05-18T21:07:44.186Z,16.20
2018-05-18T21:10:19.605Z,14.20
2018-05-18T21:12:54.295Z,14.10
2018-05-18T21:15:30.392Z,15.50
2018-05-18T21:18:05.979Z,17.23
2018-05-18T21:20:40.650Z,14.43
2018-05-18T21:23:15.450Z,19.57
2018-05-18T21:25:50.024Z,18.80
2018-05-18T21:28:25.459Z,13.43
2018-05-18T21:31:00.349Z,15.90
2018-05-18T21:33:35.034Z,20.87
2018-05-18T21:36:10.471Z,17.33
2018-05-18T21:38:45.022Z,21.10
2018-05-18T21:41:19.620Z,16.13
2018-05-18T21:43:54.254Z,23.33
2018-05-18T21:46:28.840Z,18.30
2018-05-18T21:49:03.452Z,24.80
2018-05-18T21:51:39.205Z,15.13
2018-05-18T21:54:14.709Z,16.97
2018-05-18T21:56:49.401Z,15.87
2018-05-18T21:59:24.121Z,19.47
2018-05-18T22:01:58.842Z,18.60
2018-05-18T22:04:33.751Z,19.30
2018-05-18T22:07:02.964Z,15.73
2018-05-18T22:09:37.593Z,23.83
2018-05-18T22:12:12.440Z,19.40
2018-05-18T22:14:47.177Z,22.83
2018-05-18T22:17:21.767Z,14.43
2018-05-18T22:19:56.443Z,22.10
2018-05-18T22:22:30.969Z,14.90
2018-05-18T22:25:05.582Z,16.40
2018-05-18T22:27:40.195Z,23.17
2018-05-18T22:30:14.821Z,20.03
2018-05-18T22:32:49.455Z,15.67
2018-05-18T22:35:24.119Z,17.80
2018-05-18T22:37:59.650Z,13.63
2018-05-18T22:40:33.950Z,16.63
2018-05-18T22:43:08.674Z,14.23
2018-05-18T22:45:43.444Z,17.60
2018-05-18T22:48:18.138Z,9.87
2018-05-18T22:50:52.766Z,19.63
2018-05-18T22:53:27.335Z,16.33
2018-05-18T22:56:02.103Z,19.27
2018-05-18T22:58:36.729Z,18.27
2018-05-18T23:01:11.341Z,14.50
2018-05-18T23:03:46.675Z,19.77
2018-05-18T23:06:22.269Z,18.47
2018-05-18T23:08:57.050Z,18.90
2018-05-18T23:11:31.619Z,14.57
2018-05-18T23:14:07.128Z,10.07
2018-05-18T23:16:41.788Z,13.87
2018-05-18T23:19:16.394Z,18.97
2018-05-18T23:21:51.056Z,16.30
2018-05-18T23:24:25.699Z,15.03
2018-05-18T23:27:01.393Z,15.33
2018-05-18T23:29:35.990Z,16.60
2018-05-18T23:32:10.616Z,24.13
2018-05-18T23:34:45.596Z,11.27
2018-05-18T23:37:20.153Z,23.87
2018-05-18T23:39:54.813Z,16.37
2018-05-18T23:42:29.437Z,19.80
2018-05-18T23:45:04.998Z,17.10
2018-05-18T23:47:39.620Z,17.77
2018-05-18T23:50:14.322Z,20.70
2018-05-18T23:52:49.033Z,14.00
2018-05-18T23:55:23.763Z,18.20
2018-05-18T23:57:58.454Z,17.10
